sensor_id;sensor_type;location;lat;lon;timestamp;P1;durP1;ratioP1;P2;durP2;ratioP2
45208;SDS011;30951;43.994;26.260;2024-01-25T00:01:24;70.10;;;30.73;;
45208;SDS011;30951;43.994;26.260;2024-01-25T00:03:49;57.75;;;28.55;;
45208;SDS011;30951;43.994;26.260;2024-01-25T00:06:15;70.07;;;32.30;;
45208;SDS011;30951;43.994;26.260;2024-01-25T00:08:40;73.80;;;32.28;;
45208;SDS011;30951;43.994;26.260;2024-01-25T00:11:06;67.43;;;30.85;;
45208;SDS011;30951;43.994;26.260;2024-01-25T00:13:32;82.70;;;34.45;;
45208;SDS011;30951;43.994;26.260;2024-01-25T00:15:57;76.68;;;33.38;;
45208;SDS011;30951;43.994;26.260;2024-01-25T00:18:23;82.07;;;34.65;;
45208;SDS011;30951;43.994;26.260;2024-01-25T00:20:48;105.15;;;43.38;;
45208;SDS011;30951;43.994;26.260;2024-01-25T00:23:14;73.18;;;32.72;;
45208;SDS011;30951;43.994;26.260;2024-01-25T00:25:39;76.43;;;34.03;;
45208;SDS011;30951;43.994;26.260;2024-01-25T00:28:05;85.70;;;37.35;;
45208;SDS011;30951;43.994;26.260;2024-01-25T00:30:30;92.70;;;36.10;;
45208;SDS011;30951;43.994;26.260;2024-01-25T00:32:56;106.97;;;42.85;;
45208;SDS011;30951;43.994;26.260;2024-01-25T00:35:22;112.47;;;42.92;;
45208;SDS011;30951;43.994;26.260;2024-01-25T00:37:49;81.85;;;35.47;;
45208;SDS011;30951;43.994;26.260;2024-01-25T00:40:15;79.95;;;36.42;;
45208;SDS011;30951;43.994;26.260;2024-01-25T00:42:42;76.35;;;34.58;;
45208;SDS011;30951;43.994;26.260;2024-01-25T00:45:08;82.50;;;36.10;;
45208;SDS011;30951;43.994;26.260;2024-01-25T00:47:34;82.82;;;35.55;;
45208;SDS011;30951;43.994;26.260;2024-01-25T00:50:00;87.35;;;35.13;;
45208;SDS011;30951;43.994;26.260;2024-01-25T00:52:26;77.45;;;33.60;;
45208;SDS011;30951;43.994;26.260;2024-01-25T00:54:52;87.30;;;36.92;;
45208;SDS011;30951;43.994;26.260;2024-01-25T00:57:18;92.47;;;40.42;;
45208;SDS011;30951;43.994;26.260;2024-01-25T00:59:44;76.70;;;35.20;;
45208;SDS011;30951;43.994;26.260;2024-01-25T01:02:10;87.25;;;38.67;;
45208;SDS011;30951;43.994;26.260;2024-01-25T01:04:37;80.25;;;37.35;;
45208;SDS011;30951;43.994;26.260;2024-01-25T01:07:03;83.53;;;35.75;;
45208;SDS011;30951;43.994;26.260;2024-01-25T01:09:29;72.43;;;32.97;;
45208;SDS011;30951;43.994;26.260;2024-01-25T01:11:55;71.72;;;32.25;;
45208;SDS011;30951;43.994;26.260;2024-01-25T01:14:20;75.38;;;31.77;;
45208;SDS011;30951;43.994;26.260;2024-01-25T01:16:46;67.57;;;28.95;;
45208;SDS011;30951;43.994;26.260;2024-01-25T01:19:12;70.75;;;32.53;;
45208;SDS011;30951;43.994;26.260;2024-01-25T01:21:37;85.75;;;37.47;;
45208;SDS011;30951;43.994;26.260;2024-01-25T01:24:04;78.82;;;32.30;;
45208;SDS011;30951;43.994;26.260;2024-01-25T01:26:29;67.40;;;29.15;;
45208;SDS011;30951;43.994;26.260;2024-01-25T01:28:55;62.40;;;29.88;;
45208;SDS011;30951;43.994;26.260;2024-01-25T01:31:21;58.30;;;25.77;;
45208;SDS011;30951;43.994;26.260;2024-01-25T01:33:46;61.03;;;25.40;;
45208;SDS011;30951;43.994;26.260;2024-01-25T01:36:13;45.85;;;22.23;;
45208;SDS011;30951;43.994;26.260;2024-01-25T01:38:39;54.53;;;26.02;;
45208;SDS011;30951;43.994;26.260;2024-01-25T01:41:05;49.80;;;25.42;;
45208;SDS011;30951;43.994;26.260;2024-01-25T01:43:31;47.80;;;24.02;;
45208;SDS011;30951;43.994;26.260;2024-01-25T01:45:58;44.03;;;21.13;;
45208;SDS011;30951;43.994;26.260;2024-01-25T01:48:28;48.67;;;23.63;;
45208;SDS011;30951;43.994;26.260;2024-01-25T01:50:54;49.65;;;23.95;;
45208;SDS011;30951;43.994;26.260;2024-01-25T01:53:20;41.45;;;20.88;;
45208;SDS011;30951;43.994;26.260;2024-01-25T01:55:45;40.88;;;20.52;;
45208;SDS011;30951;43.994;26.260;2024-01-25T01:58:11;43.95;;;20.42;;
45208;SDS011;30951;43.994;26.260;2024-01-25T02:00:37;44.38;;;20.75;;
45208;SDS011;30951;43.994;26.260;2024-01-25T02:03:03;43.72;;;21.65;;
45208;SDS011;30951;43.994;26.260;2024-01-25T02:05:28;41.20;;;19.70;;
45208;SDS011;30951;43.994;26.260;2024-01-25T02:07:54;39.25;;;20.10;;
45208;SDS011;30951;43.994;26.260;2024-01-25T02:10:19;38.15;;;20.52;;
45208;SDS011;30951;43.994;26.260;2024-01-25T02:12:45;36.17;;;18.30;;
45208;SDS011;30951;43.994;26.260;2024-01-25T02:15:11;40.33;;;20.95;;
45208;SDS011;30951;43.994;26.260;2024-01-25T02:17:37;35.55;;;17.55;;
45208;SDS011;30951;43.994;26.260;2024-01-25T02:20:03;29.35;;;16.00;;
45208;SDS011;30951;43.994;26.260;2024-01-25T02:22:29;31.88;;;16.20;;
45208;SDS011;30951;43.994;26.260;2024-01-25T02:24:54;27.70;;;14.63;;
45208;SDS011;30951;43.994;26.260;2024-01-25T02:27:20;34.55;;;15.82;;
45208;SDS011;30951;43.994;26.260;2024-01-25T02:29:45;32.83;;;15.48;;
45208;SDS011;30951;43.994;26.260;2024-01-25T02:32:11;25.92;;;13.80;;
45208;SDS011;30951;43.994;26.260;2024-01-25T02:34:37;27.60;;;13.45;;
45208;SDS011;30951;43.994;26.260;2024-01-25T02:37:02;28.42;;;15.77;;
45208;SDS011;30951;43.994;26.260;2024-01-25T02:39:28;30.58;;;14.98;;
45208;SDS011;30951;43.994;26.260;2024-01-25T02:41:54;24.92;;;13.43;;
45208;SDS011;30951;43.994;26.260;2024-01-25T02:44:19;28.17;;;13.38;;
45208;SDS011;30951;43.994;26.260;2024-01-25T02:46:45;24.25;;;12.68;;
45208;SDS011;30951;43.994;26.260;2024-01-25T02:49:12;25.25;;;12.82;;
45208;SDS011;30951;43.994;26.260;2024-01-25T02:51:37;23.35;;;13.35;;
45208;SDS011;30951;43.994;26.260;2024-01-25T02:54:03;28.55;;;15.02;;
45208;SDS011;30951;43.994;26.260;2024-01-25T02:56:29;29.85;;;14.25;;
45208;SDS011;30951;43.994;26.260;2024-01-25T02:59:00;24.80;;;14.10;;
45208;SDS011;30951;43.994;26.260;2024-01-25T03:01:26;31.70;;;16.13;;
45208;SDS011;30951;43.994;26.260;2024-01-25T03:03:51;32.75;;;16.25;;
45208;SDS011;30951;43.994;26.260;2024-01-25T03:06:17;29.58;;;15.38;;
45208;SDS011;30951;43.994;26.260;2024-01-25T03:08:42;32.13;;;15.65;;
45208;SDS011;30951;43.994;26.260;2024-01-25T03:11:08;27.38;;;14.60;;
45208;SDS011;30951;43.994;26.260;2024-01-25T03:13:34;35.28;;;15.90;;
45208;SDS011;30951;43.994;26.260;2024-01-25T03:15:59;32.88;;;15.52;;
45208;SDS011;30951;43.994;26.260;2024-01-25T03:18:25;29.27;;;15.20;;
45208;SDS011;30951;43.994;26.260;2024-01-25T03:20:51;31.08;;;15.35;;
45208;SDS011;30951;43.994;26.260;2024-01-25T03:23:16;29.70;;;15.52;;
45208;SDS011;30951;43.994;26.260;2024-01-25T03:25:42;30.10;;;15.52;;
45208;SDS011;30951;43.994;26.260;2024-01-25T03:28:08;31.45;;;15.80;;
45208;SDS011;30951;43.994;26.260;2024-01-25T03:30:34;25.80;;;13.50;;
45208;SDS011;30951;43.994;26.260;2024-01-25T03:33:00;34.15;;;16.92;;
45208;SDS011;30951;43.994;26.260;2024-01-25T03:35:26;32.67;;;15.70;;
45208;SDS011;30951;43.994;26.260;2024-01-25T03:37:52;37.60;;;16.45;;
45208;SDS011;30951;43.994;26.260;2024-01-25T03:40:17;28.23;;;15.50;;
45208;SDS011;30951;43.994;26.260;2024-01-25T03:42:44;32.85;;;15.82;;
45208;SDS011;30951;43.994;26.260;2024-01-25T03:45:09;35.80;;;16.88;;
45208;SDS011;30951;43.994;26.260;2024-01-25T03:47:35;26.88;;;14.32;;
45208;SDS011;30951;43.994;26.260;2024-01-25T03:50:00;22.58;;;11.57;;
45208;SDS011;30951;43.994;26.260;2024-01-25T03:52:26;22.25;;;11.45;;
45208;SDS011;30951;43.994;26.260;2024-01-25T03:54:55;33.63;;;15.77;;
45208;SDS011;30951;43.994;26.260;2024-01-25T03:57:20;29.95;;;13.65;;
45208;SDS011;30951;43.994;26.260;2024-01-25T03:59:46;26.35;;;14.18;;
45208;SDS011;30951;43.994;26.260;2024-01-25T04:02:12;33.08;;;16.67;;
45208;SDS011;30951;43.994;26.260;2024-01-25T04:04:38;25.58;;;13.05;;
45208;SDS011;30951;43.994;26.260;2024-01-25T04:07:03;35.22;;;14.15;;
45208;SDS011;30951;43.994;26.260;2024-01-25T04:09:29;31.85;;;14.25;;
45208;SDS011;30951;43.994;26.260;2024-01-25T04:11:55;29.50;;;16.23;;
45208;SDS011;30951;43.994;26.260;2024-01-25T04:14:21;25.55;;;12.18;;
45208;SDS011;30951;43.994;26.260;2024-01-25T04:16:46;31.05;;;15.02;;
45208;SDS011;30951;43.994;26.260;2024-01-25T04:19:12;31.98;;;15.07;;
45208;SDS011;30951;43.994;26.260;2024-01-25T04:21:39;28.48;;;13.98;;
45208;SDS011;30951;43.994;26.260;2024-01-25T04:24:05;32.40;;;15.75;;
45208;SDS011;30951;43.994;26.260;2024-01-25T04:26:30;29.20;;;14.65;;
45208;SDS011;30951;43.994;26.260;2024-01-25T04:28:56;28.60;;;11.30;;
45208;SDS011;30951;43.994;26.260;2024-01-25T04:31:21;30.48;;;16.17;;
45208;SDS011;30951;43.994;26.260;2024-01-25T04:33:48;36.75;;;16.45;;
45208;SDS011;30951;43.994;26.260;2024-01-25T04:36:14;33.03;;;15.70;;
45208;SDS011;30951;43.994;26.260;2024-01-25T04:38:40;39.78;;;17.55;;
45208;SDS011;30951;43.994;26.260;2024-01-25T04:41:05;34.22;;;16.73;;
45208;SDS011;30951;43.994;26.260;2024-01-25T04:43:34;30.75;;;16.13;;
45208;SDS011;30951;43.994;26.260;2024-01-25T04:46:04;33.85;;;16.65;;
45208;SDS011;30951;43.994;26.260;2024-01-25T04:48:29;28.45;;;15.02;;
45208;SDS011;30951;43.994;26.260;2024-01-25T04:50:58;30.60;;;14.57;;
45208;SDS011;30951;43.994;26.260;2024-01-25T04:53:24;38.92;;;17.40;;
45208;SDS011;30951;43.994;26.260;2024-01-25T04:55:50;36.40;;;16.50;;
45208;SDS011;30951;43.994;26.260;2024-01-25T04:58:15;31.92;;;15.10;;
45208;SDS011;30951;43.994;26.260;2024-01-25T05:00:41;33.17;;;13.23;;
45208;SDS011;30951;43.994;26.260;2024-01-25T05:03:07;28.88;;;14.23;;
45208;SDS011;30951;43.994;26.260;2024-01-25T05:05:32;31.80;;;16.27;;
45208;SDS011;30951;43.994;26.260;2024-01-25T05:07:58;35.78;;;14.95;;
45208;SDS011;30951;43.994;26.260;2024-01-25T05:10:23;25.13;;;13.55;;
45208;SDS011;30951;43.994;26.260;2024-01-25T05:12:50;37.70;;;17.17;;
45208;SDS011;30951;43.994;26.260;2024-01-25T05:15:16;36.97;;;14.70;;
45208;SDS011;30951;43.994;26.260;2024-01-25T05:17:42;35.67;;;16.92;;
45208;SDS011;30951;43.994;26.260;2024-01-25T05:20:08;34.42;;;16.88;;
45208;SDS011;30951;43.994;26.260;2024-01-25T05:22:34;36.08;;;16.52;;
45208;SDS011;30951;43.994;26.260;2024-01-25T05:25:05;31.42;;;15.52;;
45208;SDS011;30951;43.994;26.260;2024-01-25T05:27:31;34.80;;;15.90;;
45208;SDS011;30951;43.994;26.260;2024-01-25T05:29:56;37.85;;;16.08;;
45208;SDS011;30951;43.994;26.260;2024-01-25T05:32:22;41.65;;;18.48;;
45208;SDS011;30951;43.994;26.260;2024-01-25T05:34:48;38.70;;;16.90;;
45208;SDS011;30951;43.994;26.260;2024-01-25T05:37:14;42.85;;;19.75;;
45208;SDS011;30951;43.994;26.260;2024-01-25T05:39:40;40.42;;;19.23;;
45208;SDS011;30951;43.994;26.260;2024-01-25T05:42:05;45.80;;;19.67;;
45208;SDS011;30951;43.994;26.260;2024-01-25T05:44:31;44.88;;;20.98;;
45208;SDS011;30951;43.994;26.260;2024-01-25T05:46:56;49.75;;;19.85;;
45208;SDS011;30951;43.994;26.260;2024-01-25T05:49:22;49.63;;;20.13;;
45208;SDS011;30951;43.994;26.260;2024-01-25T05:51:47;40.95;;;19.27;;
45208;SDS011;30951;43.994;26.260;2024-01-25T05:54:13;39.08;;;18.08;;
45208;SDS011;30951;43.994;26.260;2024-01-25T05:56:40;38.03;;;18.90;;
45208;SDS011;30951;43.994;26.260;2024-01-25T05:59:06;38.22;;;19.42;;
45208;SDS011;30951;43.994;26.260;2024-01-25T06:01:31;33.70;;;16.55;;
45208;SDS011;30951;43.994;26.260;2024-01-25T06:03:57;40.33;;;19.42;;
45208;SDS011;30951;43.994;26.260;2024-01-25T06:06:22;42.80;;;19.80;;
45208;SDS011;30951;43.994;26.260;2024-01-25T06:08:48;46.70;;;20.08;;
45208;SDS011;30951;43.994;26.260;2024-01-25T06:11:13;39.35;;;19.52;;
45208;SDS011;30951;43.994;26.260;2024-01-25T06:13:39;41.38;;;20.42;;
45208;SDS011;30951;43.994;26.260;2024-01-25T06:16:05;45.42;;;22.25;;
45208;SDS011;30951;43.994;26.260;2024-01-25T06:18:30;47.63;;;23.05;;
45208;SDS011;30951;43.994;26.260;2024-01-25T06:20:56;43.72;;;21.73;;
45208;SDS011;30951;43.994;26.260;2024-01-25T06:23:22;40.42;;;19.05;;
45208;SDS011;30951;43.994;26.260;2024-01-25T06:25:47;39.90;;;20.52;;
45208;SDS011;30951;43.994;26.260;2024-01-25T06:28:13;48.08;;;20.38;;
45208;SDS011;30951;43.994;26.260;2024-01-25T06:30:38;51.20;;;20.80;;
45208;SDS011;30951;43.994;26.260;2024-01-25T06:33:04;39.58;;;19.25;;
45208;SDS011;30951;43.994;26.260;2024-01-25T06:35:30;40.22;;;19.08;;
45208;SDS011;30951;43.994;26.260;2024-01-25T06:37:56;33.25;;;14.30;;
45208;SDS011;30951;43.994;26.260;2024-01-25T06:40:22;33.63;;;15.85;;
45208;SDS011;30951;43.994;26.260;2024-01-25T06:42:48;34.58;;;16.08;;
45208;SDS011;30951;43.994;26.260;2024-01-25T06:45:13;39.35;;;16.60;;
45208;SDS011;30951;43.994;26.260;2024-01-25T06:47:39;34.30;;;17.52;;
45208;SDS011;30951;43.994;26.260;2024-01-25T06:50:05;40.67;;;17.75;;
45208;SDS011;30951;43.994;26.260;2024-01-25T06:52:32;33.42;;;17.20;;
45208;SDS011;30951;43.994;26.260;2024-01-25T06:54:58;43.45;;;18.13;;
45208;SDS011;30951;43.994;26.260;2024-01-25T06:57:24;40.03;;;18.73;;
45208;SDS011;30951;43.994;26.260;2024-01-25T06:59:49;47.55;;;19.58;;
45208;SDS011;30951;43.994;26.260;2024-01-25T07:02:15;40.35;;;18.95;;
45208;SDS011;30951;43.994;26.260;2024-01-25T07:04:41;37.65;;;19.02;;
45208;SDS011;30951;43.994;26.260;2024-01-25T07:07:06;35.63;;;18.42;;
45208;SDS011;30951;43.994;26.260;2024-01-25T07:09:32;31.45;;;16.88;;
45208;SDS011;30951;43.994;26.260;2024-01-25T07:11:58;31.08;;;16.00;;
45208;SDS011;30951;43.994;26.260;2024-01-25T07:14:23;32.20;;;17.65;;
45208;SDS011;30951;43.994;26.260;2024-01-25T07:16:48;35.25;;;15.73;;
45208;SDS011;30951;43.994;26.260;2024-01-25T07:19:14;35.35;;;16.88;;
45208;SDS011;30951;43.994;26.260;2024-01-25T07:21:40;27.73;;;15.82;;
45208;SDS011;30951;43.994;26.260;2024-01-25T07:24:05;33.85;;;18.05;;
45208;SDS011;30951;43.994;26.260;2024-01-25T07:26:31;31.30;;;15.60;;
45208;SDS011;30951;43.994;26.260;2024-01-25T07:28:57;29.63;;;16.05;;
45208;SDS011;30951;43.994;26.260;2024-01-25T07:31:27;33.45;;;16.02;;
45208;SDS011;30951;43.994;26.260;2024-01-25T07:33:53;34.00;;;17.60;;
45208;SDS011;30951;43.994;26.260;2024-01-25T07:36:19;35.53;;;18.67;;
45208;SDS011;30951;43.994;26.260;2024-01-25T07:38:45;29.85;;;15.57;;
45208;SDS011;30951;43.994;26.260;2024-01-25T07:41:17;35.28;;;17.48;;
45208;SDS011;30951;43.994;26.260;2024-01-25T07:43:43;37.60;;;17.13;;
45208;SDS011;30951;43.994;26.260;2024-01-25T07:46:09;35.92;;;18.65;;
45208;SDS011;30951;43.994;26.260;2024-01-25T07:48:35;48.63;;;25.83;;
45208;SDS011;30951;43.994;26.260;2024-01-25T07:51:01;57.30;;;31.27;;
45208;SDS011;30951;43.994;26.260;2024-01-25T07:53:27;38.45;;;20.60;;
45208;SDS011;30951;43.994;26.260;2024-01-25T07:55:52;29.80;;;15.88;;
45208;SDS011;30951;43.994;26.260;2024-01-25T07:58:18;35.63;;;17.25;;
45208;SDS011;30951;43.994;26.260;2024-01-25T08:00:44;32.92;;;14.55;;
45208;SDS011;30951;43.994;26.260;2024-01-25T08:03:10;33.70;;;17.48;;
45208;SDS011;30951;43.994;26.260;2024-01-25T08:05:36;32.78;;;15.43;;
45208;SDS011;30951;43.994;26.260;2024-01-25T08:08:02;27.42;;;13.82;;
45208;SDS011;30951;43.994;26.260;2024-01-25T08:10:28;26.40;;;13.55;;
45208;SDS011;30951;43.994;26.260;2024-01-25T08:12:54;27.20;;;13.25;;
45208;SDS011;30951;43.994;26.260;2024-01-25T08:15:19;25.40;;;11.70;;
45208;SDS011;30951;43.994;26.260;2024-01-25T08:17:45;24.85;;;11.43;;
45208;SDS011;30951;43.994;26.260;2024-01-25T08:20:11;24.80;;;11.90;;
45208;SDS011;30951;43.994;26.260;2024-01-25T08:22:38;24.85;;;12.38;;
45208;SDS011;30951;43.994;26.260;2024-01-25T08:25:05;22.38;;;10.45;;
45208;SDS011;30951;43.994;26.260;2024-01-25T08:27:31;20.42;;;9.45;;
45208;SDS011;30951;43.994;26.260;2024-01-25T08:29:56;21.70;;;9.88;;
45208;SDS011;30951;43.994;26.260;2024-01-25T08:32:22;23.52;;;10.52;;
45208;SDS011;30951;43.994;26.260;2024-01-25T08:34:47;23.10;;;12.32;;
45208;SDS011;30951;43.994;26.260;2024-01-25T08:37:13;22.02;;;11.43;;
45208;SDS011;30951;43.994;26.260;2024-01-25T08:39:39;21.75;;;9.88;;
45208;SDS011;30951;43.994;26.260;2024-01-25T08:42:04;30.67;;;11.75;;
45208;SDS011;30951;43.994;26.260;2024-01-25T08:44:31;33.92;;;12.93;;
45208;SDS011;30951;43.994;26.260;2024-01-25T08:46:57;27.48;;;10.85;;
45208;SDS011;30951;43.994;26.260;2024-01-25T08:49:23;29.70;;;13.63;;
45208;SDS011;30951;43.994;26.260;2024-01-25T08:51:48;31.92;;;11.90;;
45208;SDS011;30951;43.994;26.260;2024-01-25T08:54:14;21.20;;;10.18;;
45208;SDS011;30951;43.994;26.260;2024-01-25T08:56:39;19.25;;;9.45;;
45208;SDS011;30951;43.994;26.260;2024-01-25T08:59:05;24.83;;;11.45;;
45208;SDS011;30951;43.994;26.260;2024-01-25T09:01:30;22.80;;;9.70;;
45208;SDS011;30951;43.994;26.260;2024-01-25T09:03:56;23.85;;;10.75;;
45208;SDS011;30951;43.994;26.260;2024-01-25T09:06:27;23.05;;;12.88;;
45208;SDS011;30951;43.994;26.260;2024-01-25T09:08:52;30.70;;;13.23;;
45208;SDS011;30951;43.994;26.260;2024-01-25T09:11:18;26.48;;;13.32;;
45208;SDS011;30951;43.994;26.260;2024-01-25T09:13:44;23.35;;;10.18;;
45208;SDS011;30951;43.994;26.260;2024-01-25T09:16:13;20.60;;;9.77;;
45208;SDS011;30951;43.994;26.260;2024-01-25T09:18:39;16.98;;;9.00;;
45208;SDS011;30951;43.994;26.260;2024-01-25T09:21:04;17.02;;;9.20;;
45208;SDS011;30951;43.994;26.260;2024-01-25T09:23:30;15.20;;;8.77;;
45208;SDS011;30951;43.994;26.260;2024-01-25T09:25:55;18.83;;;8.13;;
45208;SDS011;30951;43.994;26.260;2024-01-25T09:28:21;17.35;;;7.65;;
45208;SDS011;30951;43.994;26.260;2024-01-25T09:30:47;14.00;;;7.93;;
45208;SDS011;30951;43.994;26.260;2024-01-25T09:33:13;16.80;;;8.70;;
45208;SDS011;30951;43.994;26.260;2024-01-25T09:35:39;17.90;;;7.97;;
45208;SDS011;30951;43.994;26.260;2024-01-25T09:38:05;15.40;;;9.00;;
45208;SDS011;30951;43.994;26.260;2024-01-25T09:40:30;19.67;;;9.25;;
45208;SDS011;30951;43.994;26.260;2024-01-25T09:42:56;21.65;;;8.93;;
45208;SDS011;30951;43.994;26.260;2024-01-25T09:45:22;29.67;;;11.98;;
45208;SDS011;30951;43.994;26.260;2024-01-25T09:47:49;29.50;;;13.05;;
45208;SDS011;30951;43.994;26.260;2024-01-25T09:50:14;23.98;;;10.30;;
45208;SDS011;30951;43.994;26.260;2024-01-25T09:52:44;21.45;;;9.02;;
45208;SDS011;30951;43.994;26.260;2024-01-25T09:55:13;20.65;;;9.90;;
45208;SDS011;30951;43.994;26.260;2024-01-25T09:57:39;16.50;;;9.10;;
45208;SDS011;30951;43.994;26.260;2024-01-25T10:00:06;18.38;;;9.32;;
45208;SDS011;30951;43.994;26.260;2024-01-25T10:02:37;16.85;;;8.88;;
45208;SDS011;30951;43.994;26.260;2024-01-25T10:05:03;19.00;;;8.63;;
45208;SDS011;30951;43.994;26.260;2024-01-25T10:07:39;18.83;;;10.10;;
45208;SDS011;30951;43.994;26.260;2024-01-25T10:10:05;23.50;;;10.02;;
45208;SDS011;30951;43.994;26.260;2024-01-25T10:12:31;19.05;;;9.05;;
45208;SDS011;30951;43.994;26.260;2024-01-25T10:14:57;18.75;;;11.10;;
45208;SDS011;30951;43.994;26.260;2024-01-25T10:17:23;19.45;;;8.98;;
45208;SDS011;30951;43.994;26.260;2024-01-25T10:19:49;26.13;;;12.05;;
45208;SDS011;30951;43.994;26.260;2024-01-25T10:22:15;15.20;;;7.93;;
45208;SDS011;30951;43.994;26.260;2024-01-25T10:24:40;16.30;;;8.82;;
45208;SDS011;30951;43.994;26.260;2024-01-25T10:27:10;21.17;;;10.85;;
45208;SDS011;30951;43.994;26.260;2024-01-25T10:29:36;22.38;;;9.98;;
45208;SDS011;30951;43.994;26.260;2024-01-25T10:32:03;20.10;;;9.18;;
45208;SDS011;30951;43.994;26.260;2024-01-25T10:34:30;20.88;;;10.60;;
45208;SDS011;30951;43.994;26.260;2024-01-25T10:36:56;19.92;;;8.73;;
45208;SDS011;30951;43.994;26.260;2024-01-25T10:39:24;20.13;;;9.40;;
45208;SDS011;30951;43.994;26.260;2024-01-25T10:41:50;17.85;;;10.05;;
45208;SDS011;30951;43.994;26.260;2024-01-25T10:44:16;20.38;;;8.63;;
45208;SDS011;30951;43.994;26.260;2024-01-25T10:46:46;18.65;;;9.57;;
45208;SDS011;30951;43.994;26.260;2024-01-25T10:49:12;15.63;;;8.85;;
45208;SDS011;30951;43.994;26.260;2024-01-25T10:51:38;11.20;;;5.97;;
45208;SDS011;30951;43.994;26.260;2024-01-25T10:54:05;21.20;;;9.65;;
45208;SDS011;30951;43.994;26.260;2024-01-25T10:56:32;13.70;;;6.78;;
45208;SDS011;30951;43.994;26.260;2024-01-25T10:58:58;17.20;;;8.13;;
45208;SDS011;30951;43.994;26.260;2024-01-25T11:01:26;15.82;;;7.97;;
45208;SDS011;30951;43.994;26.260;2024-01-25T11:03:53;19.77;;;8.52;;
45208;SDS011;30951;43.994;26.260;2024-01-25T11:06:20;24.33;;;7.80;;
45208;SDS011;30951;43.994;26.260;2024-01-25T11:08:50;17.15;;;8.18;;
45208;SDS011;30951;43.994;26.260;2024-01-25T11:11:15;19.58;;;7.53;;
45208;SDS011;30951;43.994;26.260;2024-01-25T11:13:43;16.13;;;7.20;;
45208;SDS011;30951;43.994;26.260;2024-01-25T11:16:16;19.40;;;8.57;;
45208;SDS011;30951;43.994;26.260;2024-01-25T11:18:55;30.13;;;10.43;;
45208;SDS011;30951;43.994;26.260;2024-01-25T11:21:45;22.70;;;9.43;;
45208;SDS011;30951;43.994;26.260;2024-01-25T11:24:20;16.85;;;6.88;;
45208;SDS011;30951;43.994;26.260;2024-01-25T11:26:47;18.02;;;8.15;;
45208;SDS011;30951;43.994;26.260;2024-01-25T11:29:16;14.68;;;6.40;;
45208;SDS011;30951;43.994;26.260;2024-01-25T11:31:43;16.25;;;7.15;;
45208;SDS011;30951;43.994;26.260;2024-01-25T11:34:09;22.20;;;8.45;;
45208;SDS011;30951;43.994;26.260;2024-01-25T11:36:35;15.02;;;7.43;;
45208;SDS011;30951;43.994;26.260;2024-01-25T11:39:01;23.42;;;8.52;;
45208;SDS011;30951;43.994;26.260;2024-01-25T11:41:27;22.08;;;7.40;;
45208;SDS011;30951;43.994;26.260;2024-01-25T11:43:53;13.00;;;6.75;;
45208;SDS011;30951;43.994;26.260;2024-01-25T11:46:18;15.20;;;8.05;;
45208;SDS011;30951;43.994;26.260;2024-01-25T11:48:44;16.35;;;6.65;;
45208;SDS011;30951;43.994;26.260;2024-01-25T11:51:09;22.13;;;9.15;;
45208;SDS011;30951;43.994;26.260;2024-01-25T11:53:38;24.15;;;9.45;;
45208;SDS011;30951;43.994;26.260;2024-01-25T11:56:04;13.77;;;5.80;;
45208;SDS011;30951;43.994;26.260;2024-01-25T11:58:32;14.15;;;6.57;;
45208;SDS011;30951;43.994;26.260;2024-01-25T12:00:58;20.88;;;7.82;;
45208;SDS011;30951;43.994;26.260;2024-01-25T12:03:25;23.50;;;7.45;;
45208;SDS011;30951;43.994;26.260;2024-01-25T12:05:50;15.02;;;6.72;;
45208;SDS011;30951;43.994;26.260;2024-01-25T12:08:16;13.88;;;7.47;;
45208;SDS011;30951;43.994;26.260;2024-01-25T12:10:42;12.60;;;5.45;;
45208;SDS011;30951;43.994;26.260;2024-01-25T12:13:08;24.10;;;11.57;;
45208;SDS011;30951;43.994;26.260;2024-01-25T12:15:34;39.78;;;22.63;;
45208;SDS011;30951;43.994;26.260;2024-01-25T12:18:00;101.00;;;52.85;;
45208;SDS011;30951;43.994;26.260;2024-01-25T12:20:26;19.35;;;10.95;;
45208;SDS011;30951;43.994;26.260;2024-01-25T12:22:51;24.45;;;9.77;;
45208;SDS011;30951;43.994;26.260;2024-01-25T12:25:17;20.75;;;10.07;;
45208;SDS011;30951;43.994;26.260;2024-01-25T12:27:43;18.75;;;6.38;;
45208;SDS011;30951;43.994;26.260;2024-01-25T12:30:12;18.27;;;6.82;;
45208;SDS011;30951;43.994;26.260;2024-01-25T12:32:37;22.30;;;9.05;;
45208;SDS011;30951;43.994;26.260;2024-01-25T12:35:03;20.50;;;7.97;;
45208;SDS011;30951;43.994;26.260;2024-01-25T12:37:29;16.13;;;7.45;;
45208;SDS011;30951;43.994;26.260;2024-01-25T12:39:55;19.98;;;7.32;;
45208;SDS011;30951;43.994;26.260;2024-01-25T12:42:21;20.67;;;7.45;;
45208;SDS011;30951;43.994;26.260;2024-01-25T12:44:47;18.80;;;7.05;;
45208;SDS011;30951;43.994;26.260;2024-01-25T12:47:13;19.77;;;7.20;;
45208;SDS011;30951;43.994;26.260;2024-01-25T12:49:42;15.27;;;5.95;;
45208;SDS011;30951;43.994;26.260;2024-01-25T12:52:11;17.40;;;7.80;;
45208;SDS011;30951;43.994;26.260;2024-01-25T12:54:38;17.63;;;8.13;;
45208;SDS011;30951;43.994;26.260;2024-01-25T12:57:04;18.65;;;8.68;;
45208;SDS011;30951;43.994;26.260;2024-01-25T12:59:30;17.42;;;7.38;;
45208;SDS011;30951;43.994;26.260;2024-01-25T13:01:57;9.65;;;5.30;;
45208;SDS011;30951;43.994;26.260;2024-01-25T13:04:23;18.02;;;7.15;;
45208;SDS011;30951;43.994;26.260;2024-01-25T13:06:48;21.23;;;7.13;;
45208;SDS011;30951;43.994;26.260;2024-01-25T13:09:14;14.48;;;6.15;;
45208;SDS011;30951;43.994;26.260;2024-01-25T13:11:43;17.48;;;6.18;;
45208;SDS011;30951;43.994;26.260;2024-01-25T13:14:09;23.80;;;8.00;;
45208;SDS011;30951;43.994;26.260;2024-01-25T13:16:34;17.33;;;7.82;;
45208;SDS011;30951;43.994;26.260;2024-01-25T13:19:02;23.30;;;7.95;;
45208;SDS011;30951;43.994;26.260;2024-01-25T13:21:27;28.88;;;14.38;;
45208;SDS011;30951;43.994;26.260;2024-01-25T13:23:53;28.63;;;11.18;;
45208;SDS011;30951;43.994;26.260;2024-01-25T13:26:18;33.85;;;18.85;;
45208;SDS011;30951;43.994;26.260;2024-01-25T13:28:44;24.30;;;10.05;;
45208;SDS011;30951;43.994;26.260;2024-01-25T13:31:09;34.03;;;17.42;;
45208;SDS011;30951;43.994;26.260;2024-01-25T13:33:35;20.10;;;9.32;;
45208;SDS011;30951;43.994;26.260;2024-01-25T13:36:00;29.73;;;9.93;;
45208;SDS011;30951;43.994;26.260;2024-01-25T13:38:26;21.35;;;9.05;;
45208;SDS011;30951;43.994;26.260;2024-01-25T13:40:52;23.45;;;9.98;;
45208;SDS011;30951;43.994;26.260;2024-01-25T13:43:18;36.38;;;13.32;;
45208;SDS011;30951;43.994;26.260;2024-01-25T13:45:43;35.67;;;11.85;;
45208;SDS011;30951;43.994;26.260;2024-01-25T13:48:09;15.70;;;6.30;;
45208;SDS011;30951;43.994;26.260;2024-01-25T13:50:34;21.70;;;7.85;;
45208;SDS011;30951;43.994;26.260;2024-01-25T13:53:00;19.58;;;8.68;;
45208;SDS011;30951;43.994;26.260;2024-01-25T13:55:26;27.17;;;10.38;;
45208;SDS011;30951;43.994;26.260;2024-01-25T13:57:51;17.73;;;8.18;;
45208;SDS011;30951;43.994;26.260;2024-01-25T14:00:17;22.48;;;10.10;;
45208;SDS011;30951;43.994;26.260;2024-01-25T14:02:43;26.55;;;15.32;;
45208;SDS011;30951;43.994;26.260;2024-01-25T14:05:12;23.30;;;8.98;;
45208;SDS011;30951;43.994;26.260;2024-01-25T14:07:38;20.38;;;9.23;;